Airport View

Enter AWOS ICAO identifier for current METAR.

ex. KFNL

CYOC 210000Z 05007KT 35SM FEW037 FEW100 BKN200 BKN220 11/05 A2937 RMK SC1AC1CS3CI2 SLP959 DENSITY ALT 1300FT

21 Sep 2019 00:24

Other Area AWOS: CYUA

TAF CYOC 201741Z 2018/2101 05007KT P6SM FEW013 SCT030 BKN070 TEMPO 2018/2022 BKN030 OVC060 FM202200 07008KT P6SM FEW030 BKN150 RMK NXT FCST WILL BE ISSUED AT 211445Z